KCMH/CMH METAR and TAF weather

Enter ICAO airport designator
Station Type Date Time Source
KCMH METAR 2019/04/18 19:51 UTC NOAA

KCMH 181951Z 22025G31KT 9SM SCT050 SCT100 OVC250 25/09 A2969 RMK AO2 PK WND 23031/1915 SLP049 T02500089


Station Type Date Time Source
KCMH Decoded METAR 2019/04/18 19:51 UTC NOAA

PORT COLUMBUS INTERNATIONAL AIRPORT, OH, United States (KCMH) 40-00N 82-53W 247M
Apr 18, 2019 - 03:51 PM EDT / 2019.04.18 1951 UTC
Wind: from the SW (220 degrees) at 29 MPH (25 KT) gusting to 36 MPH (31 KT):0
Visibility: 9 mile(s):0
Sky conditions: overcast
Temperature: 77.0 F (25.0 C)
Dew Point: 48.0 F (8.9 C)
Relative Humidity: 35%
Pressure (altimeter): 29.69 in. Hg (1005 hPa)
ob: KCMH 181951Z 22025G31KT 9SM SCT050 SCT100 OVC250 25/09 A2969 RMK AO2 PK WND 23031/1915 SLP049 T02500089
cycle: 20

Station Type Date Time Source
KCMH TAF 2019/04/18 18:51 UTC NOAA

TAF KCMH 181748Z 1818/1918 21020G32KT P6SM SCT050 BKN150
FM190000 21010KT P6SM SCT050 BKN120
FM190700 16006KT P6SM -SHRA OVC050
FM191000 18012KT 5SM -SHRA OVC025
FM191600 29012KT P6SM -SHRA OVC015

Example: see airport list